createdAt,value
2022-10-09T00:02:51.759Z,11.57
2022-10-09T00:05:54.608Z,11.62
2022-10-09T00:09:02.255Z,11.66
2022-10-09T00:12:05.019Z,11.66
2022-10-09T00:15:11.115Z,11.68
2022-10-09T00:18:15.640Z,11.60
2022-10-09T00:21:21.336Z,11.58
2022-10-09T00:24:23.938Z,11.54
2022-10-09T00:27:26.566Z,11.45
2022-10-09T00:30:32.268Z,11.57
2022-10-09T00:33:36.147Z,11.62
2022-10-09T00:36:38.703Z,11.68
2022-10-09T00:39:44.434Z,11.67
2022-10-09T00:42:49.314Z,11.58
2022-10-09T00:45:55.793Z,11.59
2022-10-09T00:49:27.672Z,11.59
2022-10-09T00:52:31.088Z,11.65
2022-10-09T00:55:35.003Z,11.70
2022-10-09T00:58:37.541Z,11.75
2022-10-09T01:01:41.260Z,11.76
2022-10-09T01:04:44.643Z,11.75
2022-10-09T01:07:59.920Z,11.87
2022-10-09T01:11:44.042Z,11.87
2022-10-09T01:14:59.909Z,11.94
2022-10-09T01:18:12.429Z,11.95
2022-10-09T01:21:25.815Z,11.96
2022-10-09T01:24:34.140Z,12.04
2022-10-09T01:27:38.463Z,12.14
2022-10-09T01:30:41.691Z,12.19
2022-10-09T01:33:45.148Z,12.31
2022-10-09T01:36:47.934Z,12.36
2022-10-09T01:39:51.194Z,12.44
2022-10-09T01:42:53.900Z,12.48
2022-10-09T01:46:20.111Z,12.46
2022-10-09T01:49:34.755Z,12.51
2022-10-09T01:53:04.767Z,12.54
2022-10-09T01:56:19.109Z,12.65
2022-10-09T01:59:22.824Z,12.64
2022-10-09T02:02:27.069Z,12.65
2022-10-09T02:05:30.459Z,12.69
2022-10-09T02:08:34.568Z,12.76
2022-10-09T02:11:42.798Z,12.77
2022-10-09T02:14:45.453Z,12.86
2022-10-09T02:17:49.602Z,12.82
2022-10-09T02:20:55.540Z,12.91
2022-10-09T02:23:59.509Z,12.92
2022-10-09T02:27:02.442Z,12.99
2022-10-09T02:30:07.753Z,13.09
2022-10-09T02:33:10.231Z,13.06
2022-10-09T02:36:13.504Z,13.06
2022-10-09T02:39:16.300Z,13.07
2022-10-09T02:42:18.875Z,13.04
2022-10-09T02:45:21.369Z,13.04
2022-10-09T02:48:24.197Z,13.03
2022-10-09T02:51:27.111Z,13.05
2022-10-09T02:54:29.775Z,13.08
2022-10-09T02:57:32.349Z,13.09
2022-10-09T03:00:35.031Z,13.05
2022-10-09T03:03:38.398Z,13.08
2022-10-09T03:06:41.003Z,13.01
2022-10-09T03:09:43.615Z,13.05
2022-10-09T03:12:47.162Z,13.02
2022-10-09T03:15:50.059Z,13.07
2022-10-09T03:18:53.993Z,13.05
2022-10-09T03:21:56.505Z,13.02
2022-10-09T03:24:59.077Z,13.02
2022-10-09T03:28:01.561Z,13.03
2022-10-09T03:31:04.802Z,12.95
2022-10-09T03:34:10.321Z,12.87
2022-10-09T03:37:12.939Z,12.84
2022-10-09T03:40:15.572Z,12.82
2022-10-09T03:43:18.451Z,12.88
2022-10-09T03:46:21.039Z,12.90
2022-10-09T03:49:23.749Z,12.89
2022-10-09T03:52:26.270Z,12.88
2022-10-09T03:55:29.002Z,12.88
2022-10-09T03:58:31.872Z,12.82
2022-10-09T04:01:34.469Z,12.81
2022-10-09T04:04:36.956Z,12.78
2022-10-09T04:07:42.839Z,12.80
2022-10-09T04:10:48.338Z,12.75
2022-10-09T04:13:50.892Z,12.72
2022-10-09T04:16:53.395Z,12.70
2022-10-09T04:19:56.098Z,12.71
2022-10-09T04:22:58.644Z,12.71
2022-10-09T04:26:01.700Z,12.60
2022-10-09T04:29:04.196Z,12.55
2022-10-09T04:32:07.325Z,12.57
2022-10-09T04:35:09.770Z,12.54
2022-10-09T04:38:12.829Z,12.42
2022-10-09T04:41:16.712Z,12.41
2022-10-09T04:44:19.320Z,12.36
2022-10-09T04:47:21.924Z,12.32
2022-10-09T04:50:24.849Z,12.24
2022-10-09T04:53:28.398Z,12.12
2022-10-09T04:56:31.145Z,12.04
2022-10-09T04:59:34.514Z,11.98
2022-10-09T05:02:37.221Z,11.88
2022-10-09T05:05:39.983Z,11.86
2022-10-09T05:08:42.737Z,11.77
2022-10-09T05:11:45.358Z,11.74
2022-10-09T05:14:47.930Z,11.69
2022-10-09T05:17:51.270Z,11.63
2022-10-09T05:20:53.815Z,11.58
2022-10-09T05:23:56.457Z,11.51
2022-10-09T05:26:59.044Z,11.45
2022-10-09T05:30:02.527Z,11.40
2022-10-09T05:33:06.160Z,11.33
2022-10-09T05:36:08.797Z,11.33
2022-10-09T05:39:11.378Z,11.31
2022-10-09T05:42:17.032Z,11.34
2022-10-09T05:45:19.737Z,11.33
2022-10-09T05:48:23.293Z,11.37
2022-10-09T05:51:34.229Z,11.42
2022-10-09T05:54:36.805Z,11.50
2022-10-09T05:57:39.450Z,11.53
2022-10-09T06:00:42.435Z,11.58
2022-10-09T06:03:49.950Z,11.61
2022-10-09T06:06:52.843Z,11.64
2022-10-09T06:09:55.301Z,11.62
2022-10-09T06:12:57.819Z,11.66
2022-10-09T06:16:00.276Z,11.59
2022-10-09T06:19:03.572Z,11.51
2022-10-09T06:22:06.103Z,11.59
2022-10-09T06:25:09.254Z,11.69
2022-10-09T06:28:11.873Z,11.74
2022-10-09T06:31:22.025Z,11.69
2022-10-09T06:34:24.744Z,11.77
2022-10-09T06:37:27.322Z,11.85
2022-10-09T06:40:30.169Z,11.92
2022-10-09T06:43:33.192Z,12.06
2022-10-09T06:46:38.604Z,12.10
2022-10-09T06:49:41.690Z,12.21
2022-10-09T06:52:44.499Z,12.24
2022-10-09T06:55:54.534Z,12.40
2022-10-09T06:59:00.237Z,12.48
2022-10-09T07:02:02.979Z,12.56
2022-10-09T07:05:08.063Z,12.59
2022-10-09T07:08:10.753Z,12.61
2022-10-09T07:11:17.458Z,12.69
2022-10-09T07:14:20.320Z,12.76
2022-10-09T07:17:22.896Z,12.95
2022-10-09T07:20:25.547Z,12.98
2022-10-09T07:23:29.304Z,13.03
2022-10-09T07:26:34.599Z,13.15
2022-10-09T07:29:37.338Z,13.20
2022-10-09T07:32:40.266Z,13.44
2022-10-09T07:35:42.883Z,13.51
2022-10-09T07:38:53.924Z,13.55
2022-10-09T07:41:56.442Z,13.58
2022-10-09T07:44:59.007Z,13.76
2022-10-09T07:48:01.725Z,14.01
2022-10-09T07:51:17.770Z,14.12
2022-10-09T07:54:20.646Z,14.15
2022-10-09T07:57:23.248Z,14.29
2022-10-09T08:00:26.042Z,14.38
2022-10-09T08:03:28.559Z,14.37
2022-10-09T08:06:31.324Z,14.64
2022-10-09T08:09:34.026Z,14.92
2022-10-09T08:12:36.600Z,14.98
2022-10-09T08:15:45.819Z,15.18
2022-10-09T08:18:48.508Z,15.32
2022-10-09T08:21:51.108Z,15.61
2022-10-09T08:24:53.652Z,15.91
2022-10-09T08:27:56.619Z,16.02
2022-10-09T08:30:59.307Z,16.05
2022-10-09T08:34:03.067Z,16.17
2022-10-09T08:37:05.619Z,16.40
2022-10-09T08:40:10.174Z,16.34
2022-10-09T08:43:18.123Z,16.48
2022-10-09T08:46:37.553Z,16.42
2022-10-09T08:49:43.631Z,16.71
2022-10-09T08:53:04.980Z,16.85
2022-10-09T08:56:13.761Z,16.80
2022-10-09T08:59:19.484Z,16.95
2022-10-09T09:02:33.803Z,16.87
2022-10-09T09:05:55.835Z,17.12
2022-10-09T09:09:20.135Z,17.53
2022-10-09T09:12:55.857Z,17.80
2022-10-09T09:16:10.618Z,17.49
2022-10-09T09:19:32.190Z,17.69
2022-10-09T09:22:36.117Z,18.03
2022-10-09T09:25:40.774Z,17.68
2022-10-09T09:28:44.142Z,18.15
2022-10-09T09:31:47.013Z,18.51
2022-10-09T09:34:50.222Z,18.61
2022-10-09T09:37:53.870Z,18.53
2022-10-09T09:40:56.621Z,18.48
2022-10-09T09:43:59.170Z,18.87
2022-10-09T09:47:02.491Z,19.11
2022-10-09T09:50:15.063Z,19.27
2022-10-09T09:53:35.575Z,19.57
2022-10-09T10:00:27.787Z,19.62
2022-10-09T10:03:31.450Z,19.42
2022-10-09T10:06:42.229Z,19.98
2022-10-09T10:09:44.781Z,19.44
2022-10-09T10:12:53.140Z,19.89
2022-10-09T10:15:57.652Z,19.61
2022-10-09T10:19:00.363Z,19.96
2022-10-09T10:22:18.354Z,20.02
2022-10-09T10:25:24.159Z,19.66
2022-10-09T10:28:31.857Z,19.88
2022-10-09T10:31:49.652Z,19.95
2022-10-09T10:35:05.750Z,20.35
2022-10-09T10:38:14.618Z,20.02
2022-10-09T10:41:38.046Z,19.65
2022-10-09T10:44:51.595Z,20.04
2022-10-09T10:47:57.376Z,20.31
2022-10-09T10:51:15.514Z,20.70
2022-10-09T10:54:34.814Z,20.86
2022-10-09T10:57:50.864Z,20.90
2022-10-09T11:01:08.180Z,20.57
2022-10-09T11:04:18.050Z,20.54
2022-10-09T11:07:56.617Z,20.59
2022-10-09T11:11:22.863Z,21.00
2022-10-09T11:14:38.088Z,21.17
2022-10-09T11:18:02.086Z,21.24
2022-10-09T11:21:22.940Z,21.40
2022-10-09T11:24:50.278Z,21.81
2022-10-09T11:28:05.371Z,22.25
2022-10-09T11:31:18.182Z,21.66
2022-10-09T11:34:32.777Z,21.73
2022-10-09T11:37:39.608Z,21.37
2022-10-09T11:40:44.041Z,22.21
2022-10-09T11:43:49.687Z,22.25
2022-10-09T11:46:55.513Z,22.29
2022-10-09T11:50:04.153Z,21.81
2022-10-09T11:53:12.233Z,22.09
2022-10-09T11:56:22.532Z,22.53
2022-10-09T11:59:31.603Z,22.79
2022-10-09T12:02:34.950Z,23.23
2022-10-09T12:05:43.346Z,22.77
2022-10-09T12:09:04.417Z,21.95
2022-10-09T12:12:09.541Z,21.50
2022-10-09T12:15:26.264Z,22.11
2022-10-09T12:18:34.884Z,23.19
2022-10-09T12:21:43.770Z,22.92
2022-10-09T12:24:52.263Z,22.19
2022-10-09T12:27:57.045Z,23.15
2022-10-09T12:31:01.980Z,23.24
2022-10-09T12:34:24.566Z,23.34
2022-10-09T12:37:35.481Z,23.41
2022-10-09T12:40:38.606Z,24.34
2022-10-09T12:43:48.723Z,25.18
2022-10-09T12:46:51.697Z,25.14
2022-10-09T12:50:12.989Z,23.72
2022-10-09T12:53:20.537Z,23.55
2022-10-09T12:56:28.809Z,24.16
2022-10-09T12:59:31.606Z,24.07
2022-10-09T13:02:37.638Z,24.23
2022-10-09T13:05:41.379Z,23.88
2022-10-09T13:08:44.599Z,24.38
2022-10-09T13:11:59.530Z,24.45
2022-10-09T13:15:07.676Z,24.88
2022-10-09T13:18:23.888Z,25.10
2022-10-09T13:21:31.430Z,25.09
2022-10-09T13:24:38.526Z,23.55
2022-10-09T13:27:41.322Z,24.52
2022-10-09T13:30:44.326Z,25.19
2022-10-09T13:33:47.653Z,23.92
2022-10-09T13:36:51.352Z,24.10
2022-10-09T13:39:59.005Z,24.53
2022-10-09T13:43:03.145Z,25.08
2022-10-09T13:46:06.161Z,24.05
2022-10-09T13:49:09.356Z,24.13
2022-10-09T13:52:12.066Z,24.77
2022-10-09T13:55:15.035Z,24.27
2022-10-09T13:58:18.164Z,24.63
2022-10-09T14:01:21.224Z,25.14
2022-10-09T14:04:24.384Z,25.13
2022-10-09T14:07:27.057Z,24.89
2022-10-09T14:10:29.827Z,25.20
2022-10-09T14:13:32.886Z,25.40
2022-10-09T14:16:36.028Z,25.13
2022-10-09T14:19:39.372Z,25.37
2022-10-09T14:22:42.127Z,25.48
2022-10-09T14:25:44.866Z,25.51
2022-10-09T14:28:48.162Z,25.52
2022-10-09T14:31:51.974Z,25.24
2022-10-09T14:34:54.891Z,25.31
2022-10-09T14:37:57.728Z,24.98
2022-10-09T14:41:01.512Z,24.76
2022-10-09T14:44:04.214Z,24.66
2022-10-09T14:47:07.132Z,24.75
2022-10-09T14:50:10.317Z,24.47
2022-10-09T14:53:12.897Z,24.23
2022-10-09T14:56:18.367Z,24.72
2022-10-09T14:59:21.332Z,24.91
2022-10-09T15:02:24.075Z,24.22
2022-10-09T15:05:26.768Z,24.07
2022-10-09T15:08:30.571Z,24.12
2022-10-09T15:11:34.951Z,24.24
2022-10-09T15:14:37.511Z,24.43
2022-10-09T15:17:40.719Z,23.93
2022-10-09T15:20:47.306Z,23.29
2022-10-09T15:23:50.872Z,23.54
2022-10-09T15:26:53.745Z,23.22
2022-10-09T15:29:56.395Z,22.71
2022-10-09T15:33:01.691Z,22.10
2022-10-09T15:36:04.492Z,21.31
2022-10-09T15:39:09.486Z,20.55
2022-10-09T15:42:12.884Z,19.96
2022-10-09T15:45:15.531Z,19.38
2022-10-09T15:48:27.125Z,18.91
2022-10-09T15:51:33.544Z,18.13
2022-10-09T15:54:36.766Z,17.56
2022-10-09T15:57:39.509Z,17.14
2022-10-09T16:00:44.964Z,16.61
2022-10-09T16:03:48.255Z,16.16
2022-10-09T16:06:51.636Z,15.68
2022-10-09T16:09:55.559Z,15.26
2022-10-09T16:12:58.668Z,15.04
2022-10-09T16:16:13.558Z,14.78
2022-10-09T16:19:17.176Z,14.53
2022-10-09T16:22:19.792Z,14.14
2022-10-09T16:25:22.530Z,14.00
2022-10-09T16:28:25.600Z,13.60
2022-10-09T16:31:30.921Z,13.35
2022-10-09T16:34:33.641Z,13.07
2022-10-09T16:37:36.609Z,12.74
2022-10-09T16:41:03.628Z,12.57
2022-10-09T16:44:12.663Z,12.36
2022-10-09T16:47:15.370Z,12.13
2022-10-09T16:50:18.409Z,12.00
2022-10-09T16:53:22.781Z,11.76
2022-10-09T16:56:28.047Z,11.64
2022-10-09T16:59:31.440Z,11.47
2022-10-09T17:02:34.049Z,11.25
2022-10-09T17:05:40.172Z,11.07
2022-10-09T17:08:42.906Z,10.94
2022-10-09T17:11:45.781Z,10.77
2022-10-09T17:14:48.533Z,10.67
2022-10-09T17:17:51.480Z,10.50
2022-10-09T17:20:57.465Z,10.38
2022-10-09T17:24:01.819Z,10.26
2022-10-09T17:27:09.506Z,10.12
2022-10-09T17:30:12.740Z,9.96
2022-10-09T17:33:19.598Z,9.92
2022-10-09T17:36:25.000Z,9.76
2022-10-09T17:39:28.122Z,9.62
2022-10-09T17:42:30.715Z,9.52
2022-10-09T17:45:40.798Z,9.43
2022-10-09T17:48:46.803Z,9.32
2022-10-09T17:51:49.752Z,9.23
2022-10-09T17:54:53.828Z,9.05
2022-10-09T17:57:57.691Z,8.93
2022-10-09T18:01:07.931Z,8.83
2022-10-09T18:04:17.812Z,8.66
2022-10-09T18:07:20.651Z,8.35
2022-10-09T18:10:24.099Z,8.43
2022-10-09T18:13:26.859Z,8.35
2022-10-09T18:16:36.297Z,8.28
2022-10-09T18:19:39.708Z,8.23
2022-10-09T18:22:42.413Z,8.15
2022-10-09T18:25:45.343Z,8.09
2022-10-09T18:28:49.308Z,8.04
2022-10-09T18:31:55.797Z,7.97
2022-10-09T18:34:59.079Z,7.84
2022-10-09T18:38:02.860Z,7.82
2022-10-09T18:41:08.649Z,7.71
2022-10-09T18:44:17.797Z,7.65
2022-10-09T18:47:22.041Z,7.56
2022-10-09T18:50:25.429Z,7.47
2022-10-09T18:53:29.813Z,7.42
2022-10-09T18:56:33.376Z,7.35
2022-10-09T18:59:39.404Z,7.30
2022-10-09T19:02:42.974Z,7.19
2022-10-09T19:05:46.034Z,7.12
2022-10-09T19:08:50.766Z,7.11
2022-10-09T19:11:53.969Z,7.02
2022-10-09T19:14:57.349Z,7.01
2022-10-09T19:18:00.821Z,6.89
2022-10-09T19:21:03.775Z,6.84
2022-10-09T19:24:07.310Z,6.80
2022-10-09T19:27:10.435Z,6.73
2022-10-09T19:30:15.440Z,6.65
2022-10-09T19:33:18.725Z,6.64
2022-10-09T19:36:21.422Z,6.56
2022-10-09T19:39:24.393Z,6.53
2022-10-09T19:42:27.630Z,6.45
2022-10-09T19:45:31.361Z,6.36
2022-10-09T19:48:35.132Z,6.29
2022-10-09T19:51:40.875Z,6.24
2022-10-09T19:54:43.801Z,6.25
2022-10-09T19:57:49.914Z,6.16
2022-10-09T20:00:52.782Z,6.16
2022-10-09T20:04:08.131Z,6.10
2022-10-09T20:07:12.887Z,6.09
2022-10-09T20:10:15.686Z,5.98
2022-10-09T20:13:18.183Z,6.07
2022-10-09T20:16:20.979Z,5.95
2022-10-09T20:19:42.291Z,5.92
2022-10-09T20:22:51.564Z,5.85
2022-10-09T20:26:03.257Z,5.91
2022-10-09T20:29:07.372Z,5.78
2022-10-09T20:32:12.413Z,5.78
2022-10-09T20:35:15.110Z,5.75
2022-10-09T20:38:24.823Z,5.69
2022-10-09T20:41:30.230Z,5.68
2022-10-09T20:44:32.901Z,5.71
2022-10-09T20:47:35.795Z,5.61
2022-10-09T20:50:41.559Z,5.57
2022-10-09T20:53:52.042Z,5.53
2022-10-09T20:56:54.774Z,5.46
2022-10-09T20:59:57.351Z,5.51
2022-10-09T21:02:59.978Z,5.46
2022-10-09T21:06:08.608Z,5.53
2022-10-09T21:09:11.605Z,5.47
2022-10-09T21:12:14.302Z,5.46
2022-10-09T21:15:17.135Z,5.37
2022-10-09T21:18:20.313Z,5.41
2022-10-09T21:21:23.511Z,5.36
2022-10-09T21:24:26.306Z,5.32
2022-10-09T21:27:28.920Z,5.32
2022-10-09T21:30:31.930Z,5.33
2022-10-09T21:33:34.528Z,5.44
2022-10-09T21:37:01.734Z,5.45
2022-10-09T21:40:06.216Z,5.47
2022-10-09T21:43:10.719Z,5.50
2022-10-09T21:46:13.330Z,5.44
2022-10-09T21:49:24.309Z,5.32
2022-10-09T21:52:27.139Z,5.28
2022-10-09T21:55:29.819Z,5.24
2022-10-09T21:58:32.833Z,5.23
2022-10-09T22:01:35.607Z,5.21
2022-10-09T22:04:38.245Z,5.27
2022-10-09T22:07:40.832Z,5.15
2022-10-09T22:10:43.635Z,5.11
2022-10-09T22:13:47.706Z,5.06
2022-10-09T22:16:50.308Z,5.09
2022-10-09T22:19:52.817Z,5.11
2022-10-09T22:22:55.408Z,5.14
2022-10-09T22:26:07.144Z,5.16
2022-10-09T22:29:10.252Z,5.09
2022-10-09T22:32:12.839Z,5.03
2022-10-09T22:35:15.534Z,5.02
2022-10-09T22:38:18.004Z,4.94
2022-10-09T22:41:22.468Z,4.98
2022-10-09T22:44:25.039Z,4.93
2022-10-09T22:47:28.412Z,4.98
2022-10-09T22:50:30.995Z,4.92
2022-10-09T22:53:34.639Z,4.90
2022-10-09T22:56:39.829Z,5.03
2022-10-09T22:59:42.573Z,4.95
2022-10-09T23:02:45.207Z,4.96
2022-10-09T23:05:47.739Z,4.98
2022-10-09T23:08:50.701Z,4.97
2022-10-09T23:11:53.473Z,4.97
2022-10-09T23:14:58.990Z,5.03
2022-10-09T23:18:01.573Z,4.97
2022-10-09T23:21:09.862Z,5.00
2022-10-09T23:24:18.005Z,4.95
2022-10-09T23:27:20.744Z,5.00
2022-10-09T23:30:23.480Z,4.97
2022-10-09T23:33:26.060Z,5.00
2022-10-09T23:36:29.056Z,4.97
2022-10-09T23:39:31.656Z,4.98
2022-10-09T23:42:34.269Z,4.97
2022-10-09T23:45:40.569Z,4.97
2022-10-09T23:48:44.425Z,4.94
2022-10-09T23:51:48.002Z,4.94
2022-10-09T23:54:50.546Z,4.94
2022-10-09T23:57:53.180Z,4.92
